LFRTLFRN

Guest
Details From LFRT - Saint Brieuc Armor
To LFRN - Rennes St Jacques
Flight Number -
Tags generated
Created
Modified
Stats Distance 53 nm / 98 km
Max Altitude 0 ft / 0 m
Waypoints 3
Social Downloads 1
Likes 0
Share VATSIM

Download

Looking for another format? Having issues loading an existing format? Contact us
Advertisement - Login to hide

Notes

Basic altitude profile: - Ascent Rate: 2500ft/min - Ascent Speed: 250kts - Cruise Altitude: 35000ft - Cruise Speed: 420kts - Descent Rate: 1500ft/min - Descent Speed: 250kts

Route

LFRT REN LFRN

ID Type Via Altitude Latitude Longitude Leg Dist Tot Dist Heading (true) Name
O LFRT APT - 0 ft / 0 m 48.53827˚ -2.85461˚ - 0 nm - Saint Brieuc Armor
REN VOR - 0 ft / 0 m 48.06925˚ -1.74167˚ 52 nm 52 nm 122° / 123° RENNES SAINT JACQUES VOR-DME
O LFRN APT - 0 ft / 0 m 48.06941˚ -1.73459˚ 0 nm 52 nm 88° / 88° Rennes St Jacques

Altitude Profile

Advertisement - Login to hide

LFRT

Details ICAO LFRT (SBK)
Name Saint Brieuc Armor
Region France
Timezone Europe/Paris (UTC+2.0)
Stats Elevation 452 ft / 138 m (AMSL)
Location 48.538265° -2.854612°
Runways 1
Magnetic Variation 0.991° W

METAR

LFRT 221930Z AUTO 34003KT CAVOK 16/10 Q1018

Decode

TAF

Not found

Departure Runways

ID Width Length Bearing (true) Bearing (mag) Surface Threshold Offset Overrun Length
06 148 ft / 45 m 7,214 ft / 2,199 m 58.77° 59.76° Asphalt 0 ft / 0 m 0 ft / 0 m
24 148 ft / 45 m 7,214 ft / 2,199 m 238.79° 239.78° Asphalt 0 ft / 0 m 0 ft / 0 m

LFRN

Details ICAO LFRN (RNS)
Name Rennes St Jacques
Region France
Timezone Europe/Paris (UTC+2.0)
Stats Elevation 124 ft / 38 m (AMSL)
Location 48.069410° -1.734587°
Runways 2
Magnetic Variation 0.573° W

METAR

LFRN 221930Z AUTO 35007KT CAVOK 17/11 Q1016

Decode

TAF

Not found

Destination Runways

ID Width Length Bearing (true) Bearing (mag) Surface Threshold Offset Overrun Length
10 148 ft / 45 m 6,895 ft / 2,102 m 100.76° 101.33° Asphalt 230 ft / 70 m 0 ft / 0 m
14 98 ft / 30 m 2,785 ft / 849 m 142.19° 142.76° Asphalt 0 ft / 0 m 0 ft / 0 m
28 148 ft / 45 m 6,895 ft / 2,102 m 280.78° 281.35° Asphalt 0 ft / 0 m 0 ft / 0 m
32 98 ft / 30 m 2,785 ft / 849 m 322.20° 322.77° Asphalt 0 ft / 0 m 0 ft / 0 m

Approach Navaids

Runway Type Ident Frequency Range Bearing (true) Bearing (mag) Slope Elevation
28 Localiser RS 110.10 MHz 18 nm / 33 km 280.72° 281.29° - 124 ft / 38 m (AMSL)
28 Glidescope RS 110.10 MHz 10 nm / 19 km 280.77° 281.34° 3.00° 124 ft / 38 m (AMSL)
28 DME RS 110.10 MHz 18 nm / 33 km - - - 174 ft / 53 m (AMSL)

Popular Alternatives